sensor_id;sensor_type;location;lat;lon;timestamp;P1;durP1;ratioP1;P2;durP2;ratioP2
35644;SDS011;21764;52.042;6.830;2022-08-21T00:01:38;16.52;;;8.07;;
35644;SDS011;21764;52.042;6.830;2022-08-21T00:06:39;18.48;;;8.48;;
35644;SDS011;21764;52.042;6.830;2022-08-21T00:11:39;28.55;;;9.45;;
35644;SDS011;21764;52.042;6.830;2022-08-21T00:16:40;19.95;;;8.50;;
35644;SDS011;21764;52.042;6.830;2022-08-21T00:21:41;22.13;;;9.75;;
35644;SDS011;21764;52.042;6.830;2022-08-21T00:26:42;19.13;;;8.98;;
35644;SDS011;21764;52.042;6.830;2022-08-21T00:31:43;24.48;;;9.77;;
35644;SDS011;21764;52.042;6.830;2022-08-21T00:36:44;21.90;;;9.55;;
35644;SDS011;21764;52.042;6.830;2022-08-21T00:41:45;29.77;;;10.15;;
35644;SDS011;21764;52.042;6.830;2022-08-21T00:46:45;19.67;;;9.60;;
35644;SDS011;21764;52.042;6.830;2022-08-21T00:51:50;17.10;;;9.05;;
35644;SDS011;21764;52.042;6.830;2022-08-21T00:56:54;17.90;;;8.48;;
35644;SDS011;21764;52.042;6.830;2022-08-21T01:01:58;16.45;;;8.80;;
35644;SDS011;21764;52.042;6.830;2022-08-21T01:06:59;24.77;;;9.00;;
35644;SDS011;21764;52.042;6.830;2022-08-21T01:12:00;19.45;;;9.60;;
35644;SDS011;21764;52.042;6.830;2022-08-21T01:17:03;17.00;;;7.95;;
35644;SDS011;21764;52.042;6.830;2022-08-21T01:22:04;20.15;;;7.65;;
35644;SDS011;21764;52.042;6.830;2022-08-21T01:27:05;19.25;;;8.60;;
35644;SDS011;21764;52.042;6.830;2022-08-21T01:32:08;18.02;;;8.13;;
35644;SDS011;21764;52.042;6.830;2022-08-21T01:37:11;23.55;;;8.85;;
35644;SDS011;21764;52.042;6.830;2022-08-21T01:42:12;20.45;;;8.95;;
35644;SDS011;21764;52.042;6.830;2022-08-21T01:47:14;21.75;;;9.57;;
35644;SDS011;21764;52.042;6.830;2022-08-21T01:52:15;20.52;;;8.93;;
35644;SDS011;21764;52.042;6.830;2022-08-21T01:57:16;20.25;;;9.65;;
35644;SDS011;21764;52.042;6.830;2022-08-21T02:02:16;24.17;;;9.50;;
35644;SDS011;21764;52.042;6.830;2022-08-21T02:07:17;17.90;;;8.45;;
35644;SDS011;21764;52.042;6.830;2022-08-21T02:12:18;25.05;;;10.73;;
35644;SDS011;21764;52.042;6.830;2022-08-21T02:17:19;25.98;;;11.57;;
35644;SDS011;21764;52.042;6.830;2022-08-21T02:22:19;17.83;;;9.90;;
35644;SDS011;21764;52.042;6.830;2022-08-21T02:27:21;24.75;;;10.40;;
35644;SDS011;21764;52.042;6.830;2022-08-21T02:32:23;15.57;;;9.48;;
35644;SDS011;21764;52.042;6.830;2022-08-21T02:37:24;19.30;;;9.48;;
35644;SDS011;21764;52.042;6.830;2022-08-21T02:42:24;20.13;;;10.77;;
35644;SDS011;21764;52.042;6.830;2022-08-21T02:47:25;18.60;;;9.70;;
35644;SDS011;21764;52.042;6.830;2022-08-21T02:52:26;18.48;;;9.95;;
35644;SDS011;21764;52.042;6.830;2022-08-21T02:57:27;23.35;;;10.57;;
35644;SDS011;21764;52.042;6.830;2022-08-21T03:02:27;19.83;;;10.15;;
35644;SDS011;21764;52.042;6.830;2022-08-21T03:07:28;19.02;;;10.63;;
35644;SDS011;21764;52.042;6.830;2022-08-21T03:12:29;26.13;;;10.95;;
35644;SDS011;21764;52.042;6.830;2022-08-21T03:17:29;23.27;;;11.32;;
35644;SDS011;21764;52.042;6.830;2022-08-21T03:22:30;23.55;;;10.95;;
35644;SDS011;21764;52.042;6.830;2022-08-21T03:27:32;20.70;;;11.77;;
35644;SDS011;21764;52.042;6.830;2022-08-21T03:32:34;23.05;;;12.07;;
35644;SDS011;21764;52.042;6.830;2022-08-21T03:37:36;21.27;;;12.10;;
35644;SDS011;21764;52.042;6.830;2022-08-21T03:42:37;25.30;;;14.02;;
35644;SDS011;21764;52.042;6.830;2022-08-21T03:47:38;24.10;;;14.27;;
35644;SDS011;21764;52.042;6.830;2022-08-21T03:52:38;24.13;;;14.45;;
35644;SDS011;21764;52.042;6.830;2022-08-21T03:57:39;28.13;;;14.82;;
35644;SDS011;21764;52.042;6.830;2022-08-21T04:02:40;22.83;;;13.43;;
35644;SDS011;21764;52.042;6.830;2022-08-21T04:07:42;18.27;;;10.65;;
35644;SDS011;21764;52.042;6.830;2022-08-21T04:12:43;19.48;;;11.82;;
35644;SDS011;21764;52.042;6.830;2022-08-21T04:17:43;18.90;;;12.00;;
35644;SDS011;21764;52.042;6.830;2022-08-21T04:22:44;22.65;;;12.15;;
35644;SDS011;21764;52.042;6.830;2022-08-21T04:27:45;20.00;;;12.50;;
35644;SDS011;21764;52.042;6.830;2022-08-21T04:32:47;25.45;;;13.65;;
35644;SDS011;21764;52.042;6.830;2022-08-21T04:37:50;21.92;;;13.85;;
35644;SDS011;21764;52.042;6.830;2022-08-21T04:42:52;25.98;;;14.00;;
35644;SDS011;21764;52.042;6.830;2022-08-21T04:48:00;19.73;;;13.75;;
35644;SDS011;21764;52.042;6.830;2022-08-21T04:53:04;19.05;;;11.43;;
35644;SDS011;21764;52.042;6.830;2022-08-21T04:58:07;19.08;;;10.85;;
35644;SDS011;21764;52.042;6.830;2022-08-21T05:03:11;27.27;;;10.77;;
35644;SDS011;21764;52.042;6.830;2022-08-21T05:08:14;14.23;;;9.93;;
35644;SDS011;21764;52.042;6.830;2022-08-21T05:13:19;19.42;;;9.98;;
35644;SDS011;21764;52.042;6.830;2022-08-21T05:18:20;15.98;;;10.57;;
35644;SDS011;21764;52.042;6.830;2022-08-21T05:23:20;17.20;;;8.90;;
35644;SDS011;21764;52.042;6.830;2022-08-21T05:28:21;17.05;;;8.90;;
35644;SDS011;21764;52.042;6.830;2022-08-21T05:33:22;16.42;;;8.82;;
35644;SDS011;21764;52.042;6.830;2022-08-21T05:38:26;15.80;;;8.23;;
35644;SDS011;21764;52.042;6.830;2022-08-21T05:43:28;11.57;;;7.85;;
35644;SDS011;21764;52.042;6.830;2022-08-21T05:48:28;17.98;;;8.05;;
35644;SDS011;21764;52.042;6.830;2022-08-21T05:53:29;15.57;;;8.40;;
35644;SDS011;21764;52.042;6.830;2022-08-21T05:58:31;9.13;;;7.18;;
35644;SDS011;21764;52.042;6.830;2022-08-21T06:03:33;11.50;;;7.18;;
35644;SDS011;21764;52.042;6.830;2022-08-21T06:08:36;17.97;;;7.17;;
35644;SDS011;21764;52.042;6.830;2022-08-21T06:13:37;18.08;;;7.47;;
35644;SDS011;21764;52.042;6.830;2022-08-21T06:18:39;12.05;;;6.88;;
35644;SDS011;21764;52.042;6.830;2022-08-21T06:23:41;8.07;;;6.35;;
35644;SDS011;21764;52.042;6.830;2022-08-21T06:28:42;10.63;;;6.30;;
35644;SDS011;21764;52.042;6.830;2022-08-21T06:33:43;12.90;;;6.07;;
35644;SDS011;21764;52.042;6.830;2022-08-21T06:38:44;11.10;;;5.90;;
35644;SDS011;21764;52.042;6.830;2022-08-21T06:43:45;10.05;;;5.32;;
35644;SDS011;21764;52.042;6.830;2022-08-21T06:48:46;11.05;;;5.38;;
35644;SDS011;21764;52.042;6.830;2022-08-21T06:53:47;10.43;;;5.78;;
35644;SDS011;21764;52.042;6.830;2022-08-21T06:58:49;10.07;;;5.63;;
35644;SDS011;21764;52.042;6.830;2022-08-21T07:03:50;13.15;;;6.20;;
35644;SDS011;21764;52.042;6.830;2022-08-21T07:08:51;12.57;;;6.25;;
35644;SDS011;21764;52.042;6.830;2022-08-21T07:13:51;12.30;;;5.80;;
35644;SDS011;21764;52.042;6.830;2022-08-21T07:18:54;12.00;;;5.28;;
35644;SDS011;21764;52.042;6.830;2022-08-21T07:23:54;14.48;;;5.07;;
35644;SDS011;21764;52.042;6.830;2022-08-21T07:28:55;10.90;;;4.15;;
35644;SDS011;21764;52.042;6.830;2022-08-21T07:33:56;9.63;;;4.35;;
35644;SDS011;21764;52.042;6.830;2022-08-21T07:38:56;14.13;;;4.40;;
35644;SDS011;21764;52.042;6.830;2022-08-21T07:43:57;14.05;;;4.03;;
35644;SDS011;21764;52.042;6.830;2022-08-21T07:48:59;14.60;;;3.80;;
35644;SDS011;21764;52.042;6.830;2022-08-21T07:53:59;11.07;;;3.92;;
35644;SDS011;21764;52.042;6.830;2022-08-21T07:59:00;10.52;;;4.30;;
35644;SDS011;21764;52.042;6.830;2022-08-21T08:04:02;10.30;;;3.50;;
35644;SDS011;21764;52.042;6.830;2022-08-21T08:09:03;8.93;;;3.17;;
35644;SDS011;21764;52.042;6.830;2022-08-21T08:14:04;17.35;;;3.97;;
35644;SDS011;21764;52.042;6.830;2022-08-21T08:19:05;10.73;;;3.95;;
35644;SDS011;21764;52.042;6.830;2022-08-21T08:24:06;10.07;;;4.07;;
35644;SDS011;21764;52.042;6.830;2022-08-21T08:29:06;9.00;;;3.60;;
35644;SDS011;21764;52.042;6.830;2022-08-21T08:34:07;9.52;;;4.00;;
35644;SDS011;21764;52.042;6.830;2022-08-21T08:39:08;11.70;;;3.83;;
35644;SDS011;21764;52.042;6.830;2022-08-21T08:44:08;10.03;;;3.50;;
35644;SDS011;21764;52.042;6.830;2022-08-21T08:49:18;7.87;;;3.13;;
35644;SDS011;21764;52.042;6.830;2022-08-21T08:59:43;8.23;;;2.90;;
35644;SDS011;21764;52.042;6.830;2022-08-21T09:04:47;7.57;;;2.35;;
35644;SDS011;21764;52.042;6.830;2022-08-21T09:09:52;12.23;;;2.90;;
35644;SDS011;21764;52.042;6.830;2022-08-21T09:26:02;10.35;;;2.75;;
35644;SDS011;21764;52.042;6.830;2022-08-21T09:36:37;7.30;;;2.78;;
35644;SDS011;21764;52.042;6.830;2022-08-21T09:41:43;7.13;;;2.08;;
35644;SDS011;21764;52.042;6.830;2022-08-21T09:46:50;8.00;;;2.53;;
35644;SDS011;21764;52.042;6.830;2022-08-21T09:51:52;5.43;;;2.30;;
35644;SDS011;21764;52.042;6.830;2022-08-21T10:02:31;7.00;;;2.60;;
35644;SDS011;21764;52.042;6.830;2022-08-21T10:07:37;5.78;;;2.30;;
35644;SDS011;21764;52.042;6.830;2022-08-21T10:28:49;4.20;;;1.95;;
35644;SDS011;21764;52.042;6.830;2022-08-21T10:39:34;7.90;;;2.30;;
35644;SDS011;21764;52.042;6.830;2022-08-21T10:44:48;5.50;;;2.10;;
35644;SDS011;21764;52.042;6.830;2022-08-21T10:50:13;3.78;;;1.40;;
35644;SDS011;21764;52.042;6.830;2022-08-21T10:55:43;5.40;;;1.60;;
35644;SDS011;21764;52.042;6.830;2022-08-21T11:00:53;8.45;;;2.15;;
35644;SDS011;21764;52.042;6.830;2022-08-21T11:06:13;7.65;;;2.08;;
35644;SDS011;21764;52.042;6.830;2022-08-21T11:11:39;8.32;;;2.22;;
35644;SDS011;21764;52.042;6.830;2022-08-21T11:16:49;6.68;;;2.42;;
35644;SDS011;21764;52.042;6.830;2022-08-21T11:59:32;9.48;;;2.67;;
35644;SDS011;21764;52.042;6.830;2022-08-21T12:05:03;11.60;;;2.97;;
35644;SDS011;21764;52.042;6.830;2022-08-21T12:10:16;12.95;;;2.55;;
35644;SDS011;21764;52.042;6.830;2022-08-21T12:20:40;7.07;;;2.20;;
35644;SDS011;21764;52.042;6.830;2022-08-21T12:31:03;13.38;;;2.70;;
35644;SDS011;21764;52.042;6.830;2022-08-21T12:41:15;8.77;;;2.17;;
35644;SDS011;21764;52.042;6.830;2022-08-21T12:46:36;6.20;;;2.00;;
35644;SDS011;21764;52.042;6.830;2022-08-21T12:57:00;10.85;;;2.17;;
35644;SDS011;21764;52.042;6.830;2022-08-21T13:02:03;6.82;;;2.00;;
35644;SDS011;21764;52.042;6.830;2022-08-21T13:07:20;6.75;;;1.70;;
35644;SDS011;21764;52.042;6.830;2022-08-21T13:12:25;10.90;;;2.28;;
35644;SDS011;21764;52.042;6.830;2022-08-21T13:17:30;7.93;;;2.00;;
35644;SDS011;21764;52.042;6.830;2022-08-21T13:27:36;6.43;;;2.03;;
35644;SDS011;21764;52.042;6.830;2022-08-21T13:32:44;6.95;;;1.77;;
35644;SDS011;21764;52.042;6.830;2022-08-21T13:37:47;8.10;;;1.90;;
35644;SDS011;21764;52.042;6.830;2022-08-21T13:42:50;7.53;;;1.83;;
35644;SDS011;21764;52.042;6.830;2022-08-21T13:47:52;9.55;;;1.90;;
35644;SDS011;21764;52.042;6.830;2022-08-21T13:52:56;6.80;;;1.75;;
35644;SDS011;21764;52.042;6.830;2022-08-21T13:58:04;7.03;;;2.03;;
35644;SDS011;21764;52.042;6.830;2022-08-21T14:03:06;8.43;;;1.70;;
35644;SDS011;21764;52.042;6.830;2022-08-21T14:08:18;14.07;;;1.60;;
35644;SDS011;21764;52.042;6.830;2022-08-21T14:18:46;4.70;;;1.83;;
35644;SDS011;21764;52.042;6.830;2022-08-21T14:24:27;5.65;;;1.50;;
35644;SDS011;21764;52.042;6.830;2022-08-21T14:29:24;8.82;;;2.10;;
35644;SDS011;21764;52.042;6.830;2022-08-21T14:39:28;8.18;;;1.80;;
35644;SDS011;21764;52.042;6.830;2022-08-21T14:44:29;8.93;;;2.13;;
35644;SDS011;21764;52.042;6.830;2022-08-21T14:49:31;8.75;;;2.13;;
35644;SDS011;21764;52.042;6.830;2022-08-21T14:54:32;6.13;;;1.75;;
35644;SDS011;21764;52.042;6.830;2022-08-21T14:59:34;10.63;;;1.50;;
35644;SDS011;21764;52.042;6.830;2022-08-21T15:04:35;11.43;;;1.77;;
35644;SDS011;21764;52.042;6.830;2022-08-21T15:09:36;9.35;;;2.03;;
35644;SDS011;21764;52.042;6.830;2022-08-21T15:14:38;10.30;;;1.80;;
35644;SDS011;21764;52.042;6.830;2022-08-21T15:19:40;8.70;;;2.03;;
35644;SDS011;21764;52.042;6.830;2022-08-21T15:24:41;7.53;;;1.80;;
35644;SDS011;21764;52.042;6.830;2022-08-21T15:29:42;8.48;;;1.83;;
35644;SDS011;21764;52.042;6.830;2022-08-21T15:34:43;5.97;;;1.48;;
35644;SDS011;21764;52.042;6.830;2022-08-21T15:39:43;6.05;;;1.65;;
35644;SDS011;21764;52.042;6.830;2022-08-21T15:44:44;5.60;;;1.88;;
35644;SDS011;21764;52.042;6.830;2022-08-21T15:49:46;8.57;;;2.00;;
35644;SDS011;21764;52.042;6.830;2022-08-21T15:54:47;7.18;;;1.83;;
35644;SDS011;21764;52.042;6.830;2022-08-21T15:59:53;5.25;;;1.80;;
35644;SDS011;21764;52.042;6.830;2022-08-21T16:04:57;10.35;;;1.98;;
35644;SDS011;21764;52.042;6.830;2022-08-21T16:09:58;7.95;;;1.70;;
35644;SDS011;21764;52.042;6.830;2022-08-21T16:14:59;8.48;;;1.80;;
35644;SDS011;21764;52.042;6.830;2022-08-21T16:20:04;8.70;;;2.00;;
35644;SDS011;21764;52.042;6.830;2022-08-21T16:25:08;9.35;;;1.73;;
35644;SDS011;21764;52.042;6.830;2022-08-21T16:30:09;12.05;;;2.40;;
35644;SDS011;21764;52.042;6.830;2022-08-21T16:35:12;5.72;;;1.50;;
35644;SDS011;21764;52.042;6.830;2022-08-21T16:40:15;8.55;;;2.00;;
35644;SDS011;21764;52.042;6.830;2022-08-21T16:45:17;5.65;;;1.92;;
35644;SDS011;21764;52.042;6.830;2022-08-21T16:50:20;9.10;;;2.17;;
35644;SDS011;21764;52.042;6.830;2022-08-21T16:55:22;6.68;;;1.67;;
35644;SDS011;21764;52.042;6.830;2022-08-21T17:00:23;9.43;;;2.33;;
35644;SDS011;21764;52.042;6.830;2022-08-21T17:05:24;10.85;;;1.88;;
35644;SDS011;21764;52.042;6.830;2022-08-21T17:10:24;11.40;;;1.75;;
35644;SDS011;21764;52.042;6.830;2022-08-21T17:15:29;7.82;;;1.70;;
35644;SDS011;21764;52.042;6.830;2022-08-21T17:20:32;8.98;;;2.22;;
35644;SDS011;21764;52.042;6.830;2022-08-21T17:25:33;6.47;;;1.70;;
35644;SDS011;21764;52.042;6.830;2022-08-21T17:30:39;5.28;;;1.65;;
35644;SDS011;21764;52.042;6.830;2022-08-21T17:35:45;9.15;;;1.52;;
35644;SDS011;21764;52.042;6.830;2022-08-21T17:40:46;12.25;;;2.70;;
35644;SDS011;21764;52.042;6.830;2022-08-21T17:45:48;13.50;;;2.90;;
35644;SDS011;21764;52.042;6.830;2022-08-21T17:50:49;17.95;;;3.83;;
35644;SDS011;21764;52.042;6.830;2022-08-21T17:55:49;12.52;;;3.40;;
35644;SDS011;21764;52.042;6.830;2022-08-21T18:00:51;14.35;;;3.72;;
35644;SDS011;21764;52.042;6.830;2022-08-21T18:05:52;14.45;;;3.97;;
35644;SDS011;21764;52.042;6.830;2022-08-21T18:10:55;18.33;;;3.80;;
35644;SDS011;21764;52.042;6.830;2022-08-21T18:15:58;17.20;;;3.75;;
35644;SDS011;21764;52.042;6.830;2022-08-21T18:20:59;13.48;;;4.13;;
35644;SDS011;21764;52.042;6.830;2022-08-21T18:26:00;11.15;;;4.07;;
35644;SDS011;21764;52.042;6.830;2022-08-21T18:31:01;13.00;;;3.47;;
35644;SDS011;21764;52.042;6.830;2022-08-21T18:36:02;12.30;;;3.28;;
35644;SDS011;21764;52.042;6.830;2022-08-21T18:41:03;10.40;;;3.95;;
35644;SDS011;21764;52.042;6.830;2022-08-21T18:46:04;9.52;;;3.35;;
35644;SDS011;21764;52.042;6.830;2022-08-21T18:51:04;18.00;;;3.22;;
35644;SDS011;21764;52.042;6.830;2022-08-21T18:56:05;12.73;;;2.88;;
35644;SDS011;21764;52.042;6.830;2022-08-21T19:01:07;13.25;;;3.13;;
35644;SDS011;21764;52.042;6.830;2022-08-21T19:06:07;15.45;;;4.88;;
35644;SDS011;21764;52.042;6.830;2022-08-21T19:11:09;9.57;;;2.72;;
35644;SDS011;21764;52.042;6.830;2022-08-21T19:16:10;8.00;;;2.88;;
35644;SDS011;21764;52.042;6.830;2022-08-21T19:21:10;18.30;;;3.67;;
35644;SDS011;21764;52.042;6.830;2022-08-21T19:26:11;7.45;;;2.78;;
35644;SDS011;21764;52.042;6.830;2022-08-21T19:31:13;14.18;;;2.95;;
35644;SDS011;21764;52.042;6.830;2022-08-21T19:36:16;8.75;;;2.63;;
35644;SDS011;21764;52.042;6.830;2022-08-21T19:41:24;12.07;;;2.83;;
35644;SDS011;21764;52.042;6.830;2022-08-21T19:46:28;10.60;;;3.50;;
35644;SDS011;21764;52.042;6.830;2022-08-21T19:51:32;9.85;;;2.95;;
35644;SDS011;21764;52.042;6.830;2022-08-21T19:56:34;12.02;;;2.53;;
35644;SDS011;21764;52.042;6.830;2022-08-21T20:01:34;12.23;;;3.35;;
35644;SDS011;21764;52.042;6.830;2022-08-21T20:06:35;10.20;;;2.90;;
35644;SDS011;21764;52.042;6.830;2022-08-21T20:11:38;11.73;;;2.50;;
35644;SDS011;21764;52.042;6.830;2022-08-21T20:16:44;7.13;;;2.30;;
35644;SDS011;21764;52.042;6.830;2022-08-21T20:21:47;9.07;;;2.53;;
35644;SDS011;21764;52.042;6.830;2022-08-21T20:26:48;16.92;;;3.03;;
35644;SDS011;21764;52.042;6.830;2022-08-21T20:31:49;10.57;;;2.85;;
35644;SDS011;21764;52.042;6.830;2022-08-21T20:36:49;8.63;;;2.35;;
35644;SDS011;21764;52.042;6.830;2022-08-21T20:41:51;9.50;;;2.60;;
35644;SDS011;21764;52.042;6.830;2022-08-21T20:46:52;9.77;;;2.70;;
35644;SDS011;21764;52.042;6.830;2022-08-21T20:51:53;9.48;;;2.90;;
35644;SDS011;21764;52.042;6.830;2022-08-21T20:57:17;11.17;;;2.67;;
35644;SDS011;21764;52.042;6.830;2022-08-21T21:12:54;9.48;;;2.92;;
35644;SDS011;21764;52.042;6.830;2022-08-21T21:23:15;14.75;;;2.67;;
35644;SDS011;21764;52.042;6.830;2022-08-21T21:28:25;16.20;;;3.05;;
35644;SDS011;21764;52.042;6.830;2022-08-21T21:33:39;11.25;;;3.33;;
35644;SDS011;21764;52.042;6.830;2022-08-21T21:54:40;14.43;;;3.55;;
35644;SDS011;21764;52.042;6.830;2022-08-21T22:10:46;13.98;;;3.30;;
35644;SDS011;21764;52.042;6.830;2022-08-21T22:15:56;13.18;;;3.30;;
35644;SDS011;21764;52.042;6.830;2022-08-21T22:21:02;12.77;;;3.10;;
35644;SDS011;21764;52.042;6.830;2022-08-21T22:26:19;10.13;;;3.15;;
35644;SDS011;21764;52.042;6.830;2022-08-21T22:31:28;15.15;;;4.32;;
35644;SDS011;21764;52.042;6.830;2022-08-21T22:36:39;20.33;;;4.13;;
35644;SDS011;21764;52.042;6.830;2022-08-21T22:41:44;13.32;;;3.72;;
35644;SDS011;21764;52.042;6.830;2022-08-21T22:46:48;13.80;;;3.42;;
35644;SDS011;21764;52.042;6.830;2022-08-21T22:51:54;13.18;;;3.45;;
35644;SDS011;21764;52.042;6.830;2022-08-21T22:57:38;16.02;;;3.80;;
35644;SDS011;21764;52.042;6.830;2022-08-21T23:02:44;9.60;;;3.95;;
35644;SDS011;21764;52.042;6.830;2022-08-21T23:08:00;12.15;;;4.18;;
35644;SDS011;21764;52.042;6.830;2022-08-21T23:13:16;11.10;;;4.35;;
35644;SDS011;21764;52.042;6.830;2022-08-21T23:18:22;10.27;;;4.05;;
35644;SDS011;21764;52.042;6.830;2022-08-21T23:23:59;17.75;;;4.07;;
35644;SDS011;21764;52.042;6.830;2022-08-21T23:39:45;17.75;;;4.40;;
35644;SDS011;21764;52.042;6.830;2022-08-21T23:50:04;14.32;;;4.65;;
